Time;durP1;ratioP1;P1;durP2;ratioP2;P2;SDS_P1;SDS_P2;PMS_P1;PMS_P2;Temp;Humidity;BMP_temperature;BMP_pressure;BME280_temperature;BME280_humidity;BME280_pressure;Samples;Min_cycle;Max_cycle;Signal;HPM_P1;HPM_P2
2023/10/07 00:01:38;;;;;;;17.70;4.60;;;;;;;9.06;62.53;101933.79;107574;1251;112606;-60
2023/10/07 00:04:09;;;;;;;24.60;6.40;;;;;;;9.07;62.66;101926.35;107510;1254;109626;-59
2023/10/07 00:06:38;;;;;;;24.40;6.00;;;;;;;9.09;62.68;101926.82;107525;1254;108402;-62
2023/10/07 00:09:10;;;;;;;17.50;5.40;;;;;;;9.09;62.60;101925.58;107416;1253;99199;-59
2023/10/07 00:11:39;;;;;;;27.00;5.80;;;;;;;9.06;62.47;101926.23;107407;1253;99080;-61
2023/10/07 00:14:09;;;;;;;21.40;5.80;;;;;;;9.04;62.59;101920.48;107623;1251;112352;-58
2023/10/07 00:16:39;;;;;;;19.10;5.80;;;;;;;9.01;62.38;101919.94;107603;1251;109484;-59
2023/10/07 00:19:07;;;;;;;21.10;4.90;;;;;;;8.98;62.41;101916.02;107561;1254;108130;-59
2023/10/07 00:21:55;;;;;;;19.10;5.30;;;;;;;8.93;62.24;101909.73;107547;1254;99204;-59
2023/10/07 00:24:25;;;;;;;23.50;5.70;;;;;;;8.88;62.32;101907.39;107452;1253;99744;-58
2023/10/07 00:26:56;;;;;;;16.10;5.20;;;;;;;8.84;62.35;101901.02;107440;1253;111790;-59
2023/10/07 00:29:24;;;;;;;20.00;6.60;;;;;;;8.79;62.06;101898.66;107481;1253;108920;-60
2023/10/07 00:31:53;;;;;;;15.00;5.10;;;;;;;8.73;62.14;101895.77;107418;1254;108256;-60
2023/10/07 00:34:31;;;;;;;17.30;5.30;;;;;;;8.67;62.12;101889.02;107557;1254;99135;-61
2023/10/07 00:37:01;;;;;;;18.20;6.00;;;;;;;8.61;62.26;101885.45;107553;1254;99090;-60
2023/10/07 00:39:31;;;;;;;19.30;6.00;;;;;;;8.56;62.22;101888.43;107586;1253;113098;-59
2023/10/07 00:42:00;;;;;;;16.50;5.50;;;;;;;8.50;62.20;101891.49;107585;1251;108918;-62
2023/10/07 00:44:31;;;;;;;15.30;5.40;;;;;;;8.42;62.24;101888.67;107600;1251;108394;-59
2023/10/07 00:47:12;;;;;;;18.20;5.60;;;;;;;8.36;62.47;101883.01;107591;1251;99365;-61
2023/10/07 00:52:41;;;;;;;13.50;5.20;;;;;;;8.26;62.58;101871.83;107601;1254;113071;-59
2023/10/07 00:55:24;;;;;;;22.00;5.10;;;;;;;8.21;62.75;101862.67;107572;1254;109118;-60
2023/10/07 00:58:03;;;;;;;22.40;6.60;;;;;;;8.16;62.92;101862.03;107534;1252;108338;-59
2023/10/07 01:03:17;;;;;;;19.00;5.40;;;;;;;8.11;62.81;101864.32;107543;1256;99261;-60
2023/10/07 01:11:08;;;;;;;13.00;4.50;;;;;;;8.08;63.42;101862.55;107558;1252;108322;-59
2023/10/07 01:13:36;;;;;;;20.20;5.50;;;;;;;8.09;63.58;101856.77;107525;1254;99176;-58
2023/10/07 01:16:08;;;;;;;15.90;5.00;;;;;;;8.10;63.76;101853.66;107596;1253;99207;-59
2023/10/07 01:18:39;;;;;;;18.70;4.30;;;;;;;8.11;63.63;101844.70;107551;1253;113388;-60
2023/10/07 01:21:11;;;;;;;15.50;5.80;;;;;;;8.11;63.53;101841.45;107577;1254;109252;-60
2023/10/07 01:23:44;;;;;;;16.70;5.20;;;;;;;8.12;63.32;101836.04;107555;1252;107999;-59
2023/10/07 01:26:21;;;;;;;12.30;4.70;;;;;;;8.11;63.44;101838.58;107534;1254;99249;-59
2023/10/07 01:28:56;;;;;;;20.20;4.10;;;;;;;8.11;63.69;101838.91;107486;1252;99211;-60
2023/10/07 01:31:29;;;;;;;15.60;4.00;;;;;;;8.13;63.68;101833.48;107571;1254;112526;-59
2023/10/07 01:34:01;;;;;;;14.60;4.40;;;;;;;8.14;63.82;101834.11;107555;1254;109500;-60
2023/10/07 01:36:30;;;;;;;18.30;4.90;;;;;;;8.16;63.75;101831.85;107574;1253;108678;-59
2023/10/07 01:39:01;;;;;;;10.90;4.40;;;;;;;8.13;63.69;101825.57;107410;1254;99314;-60
2023/10/07 01:41:31;;;;;;;18.60;4.50;;;;;;;8.09;63.42;101819.23;107467;1253;99195;-58
2023/10/07 01:43:59;;;;;;;9.00;4.00;;;;;;;8.06;63.59;101823.00;107415;1253;113257;-59
2023/10/07 01:46:31;;;;;;;21.80;5.10;;;;;;;8.02;63.43;101816.46;107455;1253;110233;-58
2023/10/07 01:49:04;;;;;;;13.40;4.70;;;;;;;8.01;63.28;101809.94;107613;1251;108697;-59
2023/10/07 01:51:33;;;;;;;16.10;4.80;;;;;;;7.99;63.17;101809.51;107553;1252;99045;-59
2023/10/07 01:54:08;;;;;;;13.70;5.00;;;;;;;7.95;63.16;101800.95;107439;1253;99710;-59
2023/10/07 01:56:38;;;;;;;11.10;4.90;;;;;;;7.91;63.06;101803.71;107427;1252;112809;-59
2023/10/07 02:01:53;;;;;;;17.80;6.00;;;;;;;7.79;62.96;101793.17;107561;1252;108121;-62
2023/10/07 02:04:28;;;;;;;19.70;5.50;;;;;;;7.76;62.86;101793.89;107542;1254;99231;-62
2023/10/07 02:06:56;;;;;;;19.10;6.40;;;;;;;7.71;62.85;101791.36;107570;1256;99211;-60
2023/10/07 02:09:26;;;;;;;11.80;4.20;;;;;;;7.66;63.09;101789.13;107458;1253;113692;-59
2023/10/07 02:12:08;;;;;;;12.10;4.30;;;;;;;7.61;63.04;101787.31;107579;1256;107591;-59
2023/10/07 02:14:37;;;;;;;16.10;4.10;;;;;;;7.54;63.07;101778.42;107599;1254;108162;-59
2023/10/07 02:17:08;;;;;;;12.40;4.30;;;;;;;7.47;62.83;101774.20;107626;1254;99253;-59
2023/10/07 02:19:40;;;;;;;14.50;4.80;;;;;;;7.40;62.73;101771.76;107649;1253;99058;-59
2023/10/07 02:22:20;;;;;;;16.00;5.10;;;;;;;7.34;63.05;101764.98;107620;1251;113551;-59
2023/10/07 02:25:00;;;;;;;19.80;4.40;;;;;;;7.29;63.07;101765.66;107613;1251;110285;-60
2023/10/07 02:27:37;;;;;;;11.20;5.30;;;;;;;7.22;63.12;101762.45;107572;1255;109193;-58
2023/10/07 02:30:14;;;;;;;12.40;4.90;;;;;;;7.16;63.23;101761.70;107447;1257;99211;-60
2023/10/07 02:32:42;;;;;;;18.30;4.50;;;;;;;7.12;63.47;101759.31;107627;1254;99181;-59
2023/10/07 02:35:11;;;;;;;21.80;11.20;;;;;;;7.08;63.16;101757.75;107565;1251;113633;-60
2023/10/07 02:37:39;;;;;;;13.30;5.00;;;;;;;7.04;63.40;101754.40;107582;1253;109650;-59
2023/10/07 02:40:35;;;;;;;19.10;6.10;;;;;;;7.02;63.38;101750.80;107591;1254;106940;-59
2023/10/07 02:43:07;;;;;;;12.00;4.60;;;;;;;7.00;63.36;101746.27;107561;1251;99388;-59
2023/10/07 02:45:39;;;;;;;14.40;4.60;;;;;;;6.99;63.55;101739.55;107613;1254;99752;-60
2023/10/07 02:48:11;;;;;;;23.30;4.70;;;;;;;6.99;63.81;101720.98;107615;1251;112207;-60
2023/10/07 02:50:42;;;;;;;24.70;5.20;;;;;;;7.00;63.87;101719.35;107579;1254;109280;-60
2023/10/07 02:53:15;;;;;;;10.30;4.70;;;;;;;7.00;64.06;101708.59;107553;1254;107703;-59
2023/10/07 02:58:27;;;;;;;18.50;5.40;;;;;;;7.03;64.33;101698.27;107629;1251;99723;-58
2023/10/07 03:01:10;;;;;;;11.70;4.10;;;;;;;7.04;64.24;101690.15;107594;1251;112774;-59
2023/10/07 03:03:49;;;;;;;18.30;5.30;;;;;;;7.07;64.30;101688.40;107651;1255;108741;-59
2023/10/07 03:06:17;;;;;;;15.50;4.70;;;;;;;7.10;64.38;101689.30;107555;1251;108060;-59
2023/10/07 03:11:21;;;;;;;22.60;4.90;;;;;;;7.09;64.17;101690.59;107570;1251;99805;-59
2023/10/07 03:13:56;;;;;;;13.70;4.40;;;;;;;7.06;64.36;101686.50;107609;1251;112765;-60
2023/10/07 03:16:45;;;;;;;12.60;4.90;;;;;;;7.03;64.06;101686.52;107553;1254;109272;-60
2023/10/07 03:19:22;;;;;;;12.90;4.20;;;;;;;6.97;64.05;101684.55;107555;1256;107801;-59
2023/10/07 03:24:40;;;;;;;18.20;4.60;;;;;;;6.87;64.29;101672.80;107581;1251;99739;-60
2023/10/07 03:27:21;;;;;;;18.10;5.90;;;;;;;6.86;64.33;101664.47;107543;1254;113001;-61
2023/10/07 03:30:00;;;;;;;11.30;4.30;;;;;;;6.86;64.33;101662.55;107573;1251;109583;-58
2023/10/07 03:32:54;;;;;;;12.00;3.60;;;;;;;6.86;64.36;101659.10;107570;1251;107364;-59
2023/10/07 03:35:35;;;;;;;8.30;4.10;;;;;;;6.85;64.04;101654.18;107540;1251;99211;-59
2023/10/07 03:38:08;;;;;;;19.90;3.90;;;;;;;6.82;64.05;101653.13;107581;1254;99746;-59
2023/10/07 03:40:38;;;;;;;24.20;6.50;;;;;;;6.79;64.00;101645.65;107523;1253;113350;-60
2023/10/07 03:43:08;;;;;;;19.20;4.20;;;;;;;6.78;63.84;101640.02;107563;1253;109779;-58
2023/10/07 03:45:39;;;;;;;14.50;4.00;;;;;;;6.77;64.00;101633.49;107576;1251;106741;-60
2023/10/07 03:48:22;;;;;;;14.90;4.40;;;;;;;6.76;64.12;101627.83;107571;1255;99041;-61
2023/10/07 03:50:59;;;;;;;10.60;4.60;;;;;;;6.76;64.03;101621.38;107560;1256;99060;-60
2023/10/07 03:53:32;;;;;;;14.90;4.10;;;;;;;6.73;64.07;101621.00;107543;1256;113154;-59
2023/10/07 03:56:06;;;;;;;13.10;3.80;;;;;;;6.70;64.10;101618.69;107519;1254;108570;-58
2023/10/07 03:58:36;;;;;;;14.40;4.20;;;;;;;6.68;63.92;101615.24;107551;1253;110748;-59
2023/10/07 04:01:27;;;;;;;11.20;4.60;;;;;;;6.61;63.93;101606.94;107579;1252;99227;-59
2023/10/07 04:03:59;;;;;;;12.00;3.80;;;;;;;6.57;63.91;101605.89;107558;1254;99765;-60
2023/10/07 04:06:30;;;;;;;10.60;4.00;;;;;;;6.53;63.98;101606.52;107581;1253;113878;-60
2023/10/07 04:09:32;;;;;;;13.80;4.30;;;;;;;6.43;64.03;101601.01;107587;1251;110040;-60
2023/10/07 04:11:50;;;;;;;19.60;4.20;;;;;;;6.39;64.13;101601.80;107564;1251;107444;-59
2023/10/07 04:14:27;;;;;;;8.10;3.90;;;;;;;6.37;64.31;101593.71;107589;1255;99240;-60
2023/10/07 04:17:06;;;;;;;11.20;4.20;;;;;;;6.36;64.31;101586.79;107563;1251;99203;-60
2023/10/07 04:19:39;;;;;;;16.30;4.70;;;;;;;6.33;64.66;101583.40;107622;1254;112876;-60
2023/10/07 04:22:08;;;;;;;13.90;3.50;;;;;;;6.32;64.86;101588.81;107574;1254;109801;-59
2023/10/07 04:24:44;;;;;;;30.40;4.20;;;;;;;6.30;64.77;101590.71;107591;1251;108756;-58
2023/10/07 04:27:18;;;;;;;26.30;4.20;;;;;;;6.28;65.19;101587.43;107576;1253;99872;-59
2023/10/07 04:29:51;;;;;;;16.30;3.90;;;;;;;6.30;65.03;101588.23;107643;1253;99092;-59
2023/10/07 04:32:21;;;;;;;20.50;4.80;;;;;;;6.32;65.24;101590.65;107597;1251;113108;-60
2023/10/07 04:37:47;;;;;;;15.50;4.10;;;;;;;6.31;65.33;101592.47;107623;1251;108302;-58
2023/10/07 04:45:38;;;;;;;9.50;4.20;;;;;;;6.39;65.96;101591.78;107626;1252;113258;-59
2023/10/07 04:48:40;;;;;;;17.70;4.00;;;;;;;6.46;65.87;101587.84;107537;1253;108832;-59
2023/10/07 04:51:12;;;;;;;18.90;4.40;;;;;;;6.53;65.99;101588.49;107570;1253;107077;-60
2023/10/07 04:53:43;;;;;;;12.80;5.10;;;;;;;6.59;66.23;101584.23;107576;1255;99181;-60
2023/10/07 04:56:21;;;;;;;14.40;4.10;;;;;;;6.66;66.37;101580.08;107598;1251;99214;-60
2023/10/07 04:58:51;;;;;;;25.10;4.50;;;;;;;6.74;66.46;101578.88;107586;1252;114335;-62
2023/10/07 05:01:33;;;;;;;18.30;4.00;;;;;;;6.83;66.72;101583.38;107578;1254;110430;-60
2023/10/07 05:04:04;;;;;;;22.10;4.00;;;;;;;6.89;66.43;101578.19;107578;1254;107306;-59
2023/10/07 05:06:37;;;;;;;19.70;4.30;;;;;;;6.94;66.59;101575.59;107576;1255;99903;-59
2023/10/07 05:09:10;;;;;;;23.00;4.30;;;;;;;6.99;66.40;101568.48;107571;1253;99111;-59
2023/10/07 05:11:40;;;;;;;14.40;3.90;;;;;;;7.06;66.43;101562.38;107588;1253;113371;-59
2023/10/07 05:14:17;;;;;;;11.60;4.40;;;;;;;7.14;66.46;101561.55;107568;1254;109566;-60
2023/10/07 05:16:46;;;;;;;19.10;4.40;;;;;;;7.22;66.42;101560.33;107570;1254;107375;-58
2023/10/07 05:19:19;;;;;;;12.10;4.00;;;;;;;7.29;66.38;101559.20;107625;1256;99064;-60
2023/10/07 05:22:36;;;;;;;19.20;4.50;;;;;;;7.37;66.71;101556.19;107613;1251;99086;-59
2023/10/07 05:24:38;;;;;;;22.60;4.90;;;;;;;7.47;66.63;101558.24;107536;1251;112265;-59
2023/10/07 05:27:07;;;;;;;22.20;5.10;;;;;;;7.56;66.43;101562.66;107584;1251;108797;-60
2023/10/07 05:29:35;;;;;;;24.50;4.80;;;;;;;7.65;66.39;101558.91;107561;1253;108305;-60
2023/10/07 05:32:06;;;;;;;17.90;5.10;;;;;;;7.73;66.35;101554.80;107463;1254;99172;-60
2023/10/07 05:34:35;;;;;;;38.70;7.70;;;;;;;7.81;66.04;101551.98;107557;1254;99064;-62
2023/10/07 05:37:10;;;;;;;25.80;5.90;;;;;;;7.88;65.98;101550.66;107583;1254;113122;-59
2023/10/07 05:39:41;;;;;;;28.40;4.70;;;;;;;7.94;65.74;101549.51;107600;1254;109041;-59
2023/10/07 05:42:13;;;;;;;23.00;5.20;;;;;;;8.02;65.75;101539.03;107535;1251;106791;-60
2023/10/07 05:44:41;;;;;;;24.80;6.30;;;;;;;8.10;65.66;101543.70;107588;1251;99282;-60
2023/10/07 05:47:10;;;;;;;19.00;5.40;;;;;;;8.17;65.53;101543.41;107626;1255;99761;-59
2023/10/07 05:49:41;;;;;;;35.40;6.10;;;;;;;8.25;65.45;101543.39;107599;1253;113558;-59
2023/10/07 05:52:09;;;;;;;16.90;5.60;;;;;;;8.35;65.51;101540.95;107596;1254;109679;-60
2023/10/07 05:54:38;;;;;;;20.20;5.10;;;;;;;8.46;65.39;101538.09;107521;1253;108338;-59
2023/10/07 05:57:07;;;;;;;31.40;5.70;;;;;;;8.54;65.12;101529.88;107561;1252;99193;-60
2023/10/07 05:59:35;;;;;;;23.20;5.20;;;;;;;8.61;65.12;101527.96;107614;1254;99774;-59
2023/10/07 06:02:12;;;;;;;20.40;5.80;;;;;;;8.68;65.06;101524.66;107598;1252;113353;-60
2023/10/07 06:04:41;;;;;;;33.50;5.50;;;;;;;8.75;64.84;101520.62;107591;1254;109748;-59
2023/10/07 06:07:14;;;;;;;35.60;5.90;;;;;;;8.82;64.95;101515.15;107592;1253;108850;-60
2023/10/07 06:09:44;;;;;;;26.30;5.70;;;;;;;8.89;64.68;101511.23;107576;1254;99211;-61
2023/10/07 06:12:12;;;;;;;31.50;7.50;;;;;;;8.97;64.63;101509.05;107563;1254;99717;-59
2023/10/07 06:14:40;;;;;;;26.30;5.70;;;;;;;9.07;64.58;101511.78;107599;1254;113963;-60
2023/10/07 06:17:11;;;;;;;39.60;6.20;;;;;;;9.17;64.60;101512.65;107565;1252;109681;-60
2023/10/07 06:19:41;;;;;;;35.20;6.70;;;;;;;9.27;64.43;101496.20;107529;1254;106636;-60
2023/10/07 06:22:12;;;;;;;30.40;6.60;;;;;;;9.39;64.45;101487.33;107546;1252;99458;-59
2023/10/07 06:24:42;;;;;;;21.90;5.80;;;;;;;9.52;64.46;101492.98;107540;1254;99088;-59
2023/10/07 06:27:20;;;;;;;30.80;6.40;;;;;;;9.67;64.31;101489.92;107557;1254;112605;-59
2023/10/07 06:29:50;;;;;;;27.10;6.20;;;;;;;9.86;64.36;101481.55;107621;1254;110504;-60
2023/10/07 06:32:41;;;;;;;35.80;6.90;;;;;;;10.06;64.13;101480.05;107526;1255;108625;-59
2023/10/07 06:35:14;;;;;;;47.50;7.40;;;;;;;10.31;64.09;101479.30;107569;1254;99240;-60
2023/10/07 06:37:43;;;;;;;32.30;6.40;;;;;;;10.53;63.87;101481.97;107583;1253;99150;-59
2023/10/07 06:40:35;;;;;;;21.90;6.20;;;;;;;10.73;63.85;101479.71;107573;1256;113339;-59
2023/10/07 06:43:01;;;;;;;26.40;5.00;;;;;;;10.99;63.32;101472.81;107558;1254;109618;-60
2023/10/07 06:45:35;;;;;;;22.80;4.90;;;;;;;11.25;62.94;101468.27;107584;1254;107239;-59
2023/10/07 06:48:09;;;;;;;17.20;4.20;;;;;;;11.54;61.83;101467.89;107636;1251;99176;-59
2023/10/07 06:50:43;;;;;;;9.60;3.40;;;;;;;11.86;61.30;101471.80;107592;1254;99096;-59
2023/10/07 06:53:12;;;;;;;11.70;4.00;;;;;;;12.13;60.27;101481.27;107579;1254;112831;-59
2023/10/07 06:55:44;;;;;;;18.90;3.80;;;;;;;12.36;59.54;101478.63;107608;1254;109619;-59
2023/10/07 06:58:14;;;;;;;16.40;4.40;;;;;;;12.59;58.87;101474.52;107577;1254;107080;-59
2023/10/07 07:00:49;;;;;;;10.70;4.20;;;;;;;12.79;58.24;101477.60;107570;1253;99174;-60
2023/10/07 07:03:20;;;;;;;25.10;4.40;;;;;;;12.96;57.20;101476.91;107633;1253;99121;-59
2023/10/07 07:05:48;;;;;;;12.50;4.00;;;;;;;13.09;57.29;101478.23;107616;1254;115039;-61
2023/10/07 07:08:22;;;;;;;16.10;3.40;;;;;;;13.20;56.60;101475.34;107552;1253;109673;-60
2023/10/07 07:10:55;;;;;;;13.70;3.60;;;;;;;13.33;56.33;101466.58;107589;1254;107535;-60
2023/10/07 07:13:27;;;;;;;12.90;3.50;;;;;;;13.46;55.61;101455.10;107502;1254;99179;-59
2023/10/07 07:16:08;;;;;;;20.10;4.60;;;;;;;13.61;54.68;101451.54;107594;1254;99769;-60
2023/10/07 07:18:40;;;;;;;22.50;4.20;;;;;;;13.81;53.64;101450.23;107521;1256;112672;-60
2023/10/07 07:21:31;;;;;;;11.70;4.20;;;;;;;13.99;53.18;101453.64;107568;1251;108906;-60
2023/10/07 07:24:00;;;;;;;11.70;4.20;;;;;;;14.20;52.21;101453.14;107543;1251;108432;-59
2023/10/07 07:26:30;;;;;;;9.60;4.00;;;;;;;14.39;51.57;101444.23;107471;1253;99186;-60
2023/10/07 07:28:58;;;;;;;15.90;4.00;;;;;;;14.53;51.28;101442.49;107532;1252;99720;-59
2023/10/07 07:31:33;;;;;;;9.60;3.50;;;;;;;14.74;51.59;101436.95;107586;1254;113613;-59
2023/10/07 07:34:20;;;;;;;10.00;3.80;;;;;;;14.92;51.30;101430.79;107568;1254;108981;-59
2023/10/07 07:36:56;;;;;;;11.50;3.30;;;;;;;15.13;49.61;101426.75;107568;1255;106916;-60
2023/10/07 07:39:24;;;;;;;15.90;3.70;;;;;;;15.27;49.12;101426.45;107575;1253;99090;-60
2023/10/07 07:41:55;;;;;;;16.90;4.10;;;;;;;15.43;49.18;101422.17;107555;1254;99057;-59
2023/10/07 07:44:34;;;;;;;22.30;3.80;;;;;;;15.64;48.08;101413.20;107639;1253;113279;-59
2023/10/07 07:47:03;;;;;;;14.30;3.60;;;;;;;15.87;48.01;101409.38;107567;1254;108859;-59
2023/10/07 07:49:32;;;;;;;10.80;3.60;;;;;;;16.08;47.60;101418.94;107443;1254;107199;-61
2023/10/07 07:52:02;;;;;;;11.90;4.40;;;;;;;16.29;46.50;101416.65;107529;1253;99164;-60
2023/10/07 07:54:30;;;;;;;12.40;3.90;;;;;;;16.49;46.30;101417.48;107578;1253;100416;-60
2023/10/07 07:56:59;;;;;;;11.70;4.10;;;;;;;16.70;45.74;101410.10;107552;1253;114439;-60
2023/10/07 07:59:32;;;;;;;11.90;4.80;;;;;;;16.84;45.26;101408.05;107547;1254;110177;-60
2023/10/07 08:04:48;;;;;;;16.20;4.80;;;;;;;17.21;43.80;101399.70;107560;1253;99184;-60
2023/10/07 08:09:52;;;;;;;13.40;4.90;;;;;;;17.64;43.13;101397.31;107565;1254;112471;-61
2023/10/07 08:12:28;;;;;;;10.00;4.50;;;;;;;17.85;42.91;101388.05;107550;1254;108861;-60
2023/10/07 08:17:44;;;;;;;14.10;4.30;;;;;;;18.22;42.40;101372.02;107528;1256;99945;-60
2023/10/07 08:20:14;;;;;;;13.00;4.40;;;;;;;18.49;42.08;101373.05;107586;1254;99062;-60
2023/10/07 08:22:45;;;;;;;7.70;4.10;;;;;;;18.69;40.94;101374.02;107544;1254;112653;-59
2023/10/07 08:28:18;;;;;;;12.90;4.30;;;;;;;18.93;40.12;101365.33;107596;1255;107423;-59
2023/10/07 08:30:49;;;;;;;8.50;4.20;;;;;;;19.06;40.12;101359.90;107599;1254;99237;-59
2023/10/07 08:33:24;;;;;;;12.20;3.90;;;;;;;19.22;39.44;101358.59;107599;1253;99127;-59
2023/10/07 08:35:52;;;;;;;12.30;3.90;;;;;;;19.37;39.75;101357.20;107599;1253;111619;-59
2023/10/07 08:38:22;;;;;;;7.50;3.80;;;;;;;19.58;39.02;101352.39;107596;1254;108607;-59
2023/10/07 08:41:04;;;;;;;18.40;4.30;;;;;;;19.78;38.13;101350.22;107560;1254;107089;-59
2023/10/07 08:44:21;;;;;;;10.50;4.00;;;;;;;20.07;38.20;101335.56;107567;1254;99035;-59
2023/10/07 08:46:28;;;;;;;13.70;4.20;;;;;;;20.47;37.73;101326.91;107536;1253;99118;-60
2023/10/07 08:49:04;;;;;;;11.60;3.80;;;;;;;20.77;37.09;101328.90;107614;1255;112443;-60
2023/10/07 08:51:40;;;;;;;14.50;4.20;;;;;;;21.05;35.78;101327.45;107518;1254;109908;-59
2023/10/07 08:54:25;;;;;;;11.10;3.60;;;;;;;21.27;34.88;101329.67;107556;1254;106334;-60
2023/10/07 08:57:10;;;;;;;10.20;3.90;;;;;;;21.45;34.78;101324.95;107583;1252;99166;-62
2023/10/07 08:59:40;;;;;;;6.60;3.70;;;;;;;21.75;34.18;101323.95;107575;1253;99060;-60
2023/10/07 09:02:12;;;;;;;9.90;3.60;;;;;;;22.03;33.75;101318.02;107587;1255;112232;-61
2023/10/07 09:04:41;;;;;;;9.70;3.50;;;;;;;22.43;32.57;101310.22;107585;1254;108986;-61
2023/10/07 09:07:11;;;;;;;8.00;3.80;;;;;;;22.94;32.73;101303.24;107573;1252;107076;-60
2023/10/07 09:09:43;;;;;;;12.10;3.80;;;;;;;23.70;31.79;101299.83;107491;1254;99195;-60
2023/10/07 09:12:15;;;;;;;7.50;3.10;;;;;;;24.40;29.58;101297.73;107580;1253;99216;-60
2023/10/07 09:14:57;;;;;;;6.90;3.40;;;;;;;24.99;29.32;101294.03;107634;1254;111508;-60
2023/10/07 09:17:29;;;;;;;6.10;3.60;;;;;;;25.85;27.55;101283.02;107608;1255;108779;-60
2023/10/07 09:19:58;;;;;;;11.80;3.40;;;;;;;26.34;28.23;101279.84;107581;1255;108404;-60
2023/10/07 09:22:35;;;;;;;14.50;3.60;;;;;;;27.04;26.60;101277.39;107518;1254;99175;-61
2023/10/07 09:25:17;;;;;;;6.70;3.00;;;;;;;27.37;25.87;101275.45;107525;1254;99080;-60
2023/10/07 09:27:58;;;;;;;4.70;2.90;;;;;;;27.31;24.76;101272.87;107584;1256;112687;-60
2023/10/07 09:30:44;;;;;;;9.90;3.10;;;;;;;27.15;24.90;101267.14;107639;1254;109342;-61
2023/10/07 09:33:21;;;;;;;6.60;3.10;;;;;;;27.79;25.15;101256.94;107579;1254;108390;-60
2023/10/07 09:38:44;;;;;;;9.20;3.30;;;;;;;28.36;23.35;101251.61;107578;1253;99798;-62
2023/10/07 09:43:56;;;;;;;5.60;2.80;;;;;;;29.32;22.55;101247.66;107611;1254;108909;-60
2023/10/07 09:46:25;;;;;;;9.10;3.70;;;;;;;29.66;22.73;101236.48;107566;1254;107611;-59
2023/10/07 09:48:57;;;;;;;10.80;3.40;;;;;;;30.07;21.71;101233.06;107521;1254;99179;-61
2023/10/07 09:51:29;;;;;;;9.30;2.80;;;;;;;30.35;22.26;101224.33;107635;1254;99195;-60
2023/10/07 09:54:16;;;;;;;9.80;3.00;;;;;;;30.89;20.78;101219.07;107587;1254;113373;-61
2023/10/07 09:57:42;;;;;;;9.60;3.00;;;;;;;30.94;21.20;101215.67;107592;1254;108269;-61
2023/10/07 10:03:14;;;;;;;9.30;3.40;;;;;;;30.91;20.05;101220.04;107561;1254;99246;-61
2023/10/07 10:06:16;;;;;;;13.30;2.50;;;;;;;30.61;20.88;101207.88;107664;1254;99354;-61
2023/10/07 10:08:58;;;;;;;7.10;2.80;;;;;;;31.02;21.34;101200.69;107058;1256;638763;-60
2023/10/07 10:11:31;;;;;;;10.70;2.70;;;;;;;31.43;20.95;101197.34;107582;1254;109934;-61
2023/10/07 10:17:00;;;;;;;6.00;2.50;;;;;;;31.19;20.34;101187.48;107248;1257;99074;-61
2023/10/07 10:19:44;;;;;;;14.70;8.40;;;;;;;31.06;19.99;101186.67;107590;1254;99162;-62
2023/10/07 10:22:24;;;;;;;8.30;2.90;;;;;;;30.70;20.04;101187.00;107614;1253;113971;-62
2023/10/07 10:24:57;;;;;;;5.10;2.80;;;;;;;30.83;19.85;101180.41;107604;1254;108754;-61
2023/10/07 10:27:26;;;;;;;6.30;2.30;;;;;;;30.77;19.34;101170.29;107589;1254;108715;-61
2023/10/07 10:30:04;;;;;;;10.00;2.50;;;;;;;30.98;19.38;101171.77;107570;1255;99329;-61
2023/10/07 10:32:37;;;;;;;6.90;2.70;;;;;;;30.75;19.21;101164.60;107588;1254;99060;-61
2023/10/07 10:35:07;;;;;;;5.10;2.60;;;;;;;30.52;19.78;101159.18;107553;1255;113468;-60
2023/10/07 10:37:37;;;;;;;10.70;5.00;;;;;;;30.47;19.93;101155.79;107611;1255;110194;-61
2023/10/07 10:40:14;;;;;;;7.60;5.60;;;;;;;30.30;19.58;101151.23;107613;1256;108976;-60
2023/10/07 10:42:47;;;;;;;8.10;3.10;;;;;;;30.29;19.73;101144.89;107542;1254;99165;-61
2023/10/07 10:45:24;;;;;;;5.70;3.00;;;;;;;30.41;19.81;101140.80;107577;1253;99087;-61
2023/10/07 10:47:54;;;;;;;4.00;2.40;;;;;;;31.16;19.46;101137.42;107578;1251;112134;-60
2023/10/07 10:50:24;;;;;;;9.30;3.90;;;;;;;31.90;18.51;101134.58;107603;1254;109618;-62
2023/10/07 10:52:58;;;;;;;8.60;2.40;;;;;;;32.24;18.45;101125.46;107559;1254;106814;-61
2023/10/07 10:55:38;;;;;;;13.60;2.90;;;;;;;32.70;17.63;101120.23;107519;1254;99182;-61
2023/10/07 10:58:17;;;;;;;16.50;2.70;;;;;;;33.28;17.78;101103.18;107607;1254;99158;-61
2023/10/07 11:00:51;;;;;;;6.70;2.60;;;;;;;33.73;17.21;101098.16;107549;1254;112589;-61
2023/10/07 11:03:23;;;;;;;7.60;2.40;;;;;;;33.87;16.93;101097.45;107586;1254;110474;-62
2023/10/07 11:05:54;;;;;;;4.10;2.30;;;;;;;33.93;17.17;101084.70;107574;1254;108750;-61
2023/10/07 11:08:24;;;;;;;5.40;2.60;;;;;;;34.43;16.41;101081.86;107602;1254;99246;-61
2023/10/07 11:10:57;;;;;;;8.70;2.30;;;;;;;34.58;16.55;101075.77;107647;1254;99223;-62
2023/10/07 11:13:28;;;;;;;9.30;2.90;;;;;;;34.25;16.12;101070.05;107646;1254;113525;-61
2023/10/07 11:16:10;;;;;;;10.10;2.90;;;;;;;33.66;17.22;101062.71;107575;1256;109636;-60
2023/10/07 11:18:47;;;;;;;18.10;9.60;;;;;;;33.07;16.96;101058.88;107597;1253;108698;-61
2023/10/07 11:21:18;;;;;;;7.40;2.90;;;;;;;32.18;17.53;101057.48;107571;1254;99175;-61
2023/10/07 11:23:57;;;;;;;5.30;3.00;;;;;;;31.64;18.24;101050.45;107584;1254;99198;-61
2023/10/07 11:26:32;;;;;;;12.50;3.60;;;;;;;30.97;18.26;101062.98;107626;1253;112253;-61
2023/10/07 11:29:13;;;;;;;15.10;3.10;;;;;;;30.61;18.98;101044.20;107587;1254;108875;-61
2023/10/07 11:31:41;;;;;;;8.40;2.80;;;;;;;30.54;18.99;101035.23;107581;1254;108178;-60
2023/10/07 11:34:10;;;;;;;8.40;2.50;;;;;;;30.75;18.84;101031.16;107547;1257;99175;-61
2023/10/07 11:36:45;;;;;;;8.10;5.00;;;;;;;30.77;19.12;101028.27;107633;1254;99195;-62
2023/10/07 11:39:13;;;;;;;9.90;3.00;;;;;;;30.42;19.16;101031.17;107606;1255;113509;-60
2023/10/07 11:41:42;;;;;;;5.50;2.50;;;;;;;30.48;19.22;101017.04;107496;1254;110453;-60
2023/10/07 11:44:16;;;;;;;17.90;2.80;;;;;;;30.56;19.23;101015.18;107506;1253;108139;-60
2023/10/07 11:46:45;;;;;;;21.70;15.50;;;;;;;30.57;19.21;101012.51;107490;1256;99182;-61
2023/10/07 11:49:15;;;;;;;8.10;3.30;;;;;;;30.55;19.28;101007.95;107579;1254;99096;-60
2023/10/07 11:51:44;;;;;;;11.50;2.90;;;;;;;30.66;19.19;101002.65;107546;1256;112370;-60
2023/10/07 11:54:13;;;;;;;14.90;3.30;;;;;;;30.71;18.96;100994.73;107606;1254;110046;-61
2023/10/07 11:56:41;;;;;;;12.90;3.00;;;;;;;30.69;19.30;100992.40;107580;1252;107590;-62
2023/10/07 11:59:09;;;;;;;6.90;2.80;;;;;;;30.69;19.04;100991.79;107532;1254;99211;-61
2023/10/07 12:01:38;;;;;;;6.60;2.60;;;;;;;30.68;18.99;100980.29;107634;1254;99184;-61
2023/10/07 12:04:08;;;;;;;12.10;3.00;;;;;;;30.52;19.35;100972.88;107601;1254;112471;-60
2023/10/07 12:06:36;;;;;;;16.20;2.50;;;;;;;30.61;19.14;100969.46;107531;1254;109750;-60
2023/10/07 12:09:07;;;;;;;8.10;2.70;;;;;;;30.83;19.08;100968.45;107560;1254;107860;-60
2023/10/07 12:11:35;;;;;;;8.30;3.00;;;;;;;30.89;18.95;100964.16;107573;1256;99294;-60
2023/10/07 12:14:05;;;;;;;18.10;2.90;;;;;;;30.85;18.99;100960.42;107491;1254;99204;-61
2023/10/07 12:16:33;;;;;;;14.60;2.60;;;;;;;31.01;18.63;100964.78;107490;1253;112173;-60
2023/10/07 12:19:01;;;;;;;7.90;2.80;;;;;;;31.29;18.33;100952.95;107552;1253;109008;-60
2023/10/07 12:21:29;;;;;;;11.60;2.60;;;;;;;31.66;18.36;100947.63;107468;1256;109046;-61
2023/10/07 12:23:58;;;;;;;7.80;3.20;;;;;;;31.96;17.84;100943.59;107511;1256;99269;-63
2023/10/07 12:26:28;;;;;;;10.60;2.90;;;;;;;32.37;17.61;100942.17;107542;1254;99276;-61
2023/10/07 12:28:57;;;;;;;15.00;3.20;;;;;;;32.73;17.14;100935.67;107543;1254;112592;-61
2023/10/07 12:31:27;;;;;;;9.10;2.90;;;;;;;32.93;17.25;100941.89;107499;1254;108860;-61